Time;durP1;ratioP1;P1;durP2;ratioP2;P2;SDS_P1;SDS_P2;PMS_P1;PMS_P2;Temp;Humidity;BMP_temperature;BMP_pressure;BME280_temperature;BME280_humidity;BME280_pressure;Samples;Min_cycle;Max_cycle;Signal;HPM_P1;HPM_P2
2022/10/28 00:01:21;;;;;;;5.67;4.93;;;;;;;14.66;76.70;99628.13;5094721;28;43116;-79
2022/10/28 00:03:52;;;;;;;6.57;5.03;;;;;;;14.63;76.74;99638.97;5111557;28;39653;-79
2022/10/28 00:06:21;;;;;;;7.50;5.20;;;;;;;14.55;76.54;99629.78;5112925;28;43129;-79
2022/10/28 00:08:51;;;;;;;6.27;5.23;;;;;;;14.49;76.38;99638.19;5094424;28;43360;-79
2022/10/28 00:11:22;;;;;;;7.07;5.07;;;;;;;14.48;76.29;99637.31;5111010;28;42442;-78
2022/10/28 00:13:52;;;;;;;5.57;4.40;;;;;;;14.36;76.47;99622.09;5111469;28;40904;-78
2022/10/28 00:16:22;;;;;;;5.53;4.73;;;;;;;14.37;76.20;99629.16;5094596;28;41766;-78
2022/10/28 00:18:52;;;;;;;6.23;4.93;;;;;;;14.40;76.42;99638.78;5110742;28;42953;-79
2022/10/28 00:21:22;;;;;;;4.47;4.03;;;;;;;14.34;76.44;99632.03;5111754;28;42607;-78
2022/10/28 00:23:51;;;;;;;5.13;4.57;;;;;;;14.32;77.05;99631.28;5094029;28;40727;-79
2022/10/28 00:26:22;;;;;;;5.97;4.80;;;;;;;14.29;76.67;99628.81;5111557;28;41711;-78
2022/10/28 00:28:51;;;;;;;6.90;5.33;;;;;;;14.25;76.98;99624.63;5111121;28;44276;-80
2022/10/28 00:31:21;;;;;;;8.10;5.03;;;;;;;14.23;77.10;99626.53;5112663;28;42308;-80
2022/10/28 00:33:49;;;;;;;4.90;4.40;;;;;;;14.22;76.81;99635.47;5110994;28;40032;-79
2022/10/28 00:36:19;;;;;;;7.30;5.60;;;;;;;14.19;76.92;99630.38;5111634;28;41586;-78
2022/10/28 00:38:48;;;;;;;6.67;4.57;;;;;;;14.17;77.03;99626.94;5094144;28;42815;-78
2022/10/28 00:41:20;;;;;;;7.63;4.77;;;;;;;14.15;77.41;99627.03;5111274;28;41578;-78
2022/10/28 00:43:50;;;;;;;5.70;4.97;;;;;;;14.13;77.12;99636.06;5093839;28;40689;-80
2022/10/28 00:46:24;;;;;;;6.60;4.83;;;;;;;14.12;76.88;99635.22;5111672;28;42412;-79
2022/10/28 00:48:57;;;;;;;5.17;4.37;;;;;;;13.80;77.16;99591.19;5093382;28;41722;-80
2022/10/28 00:51:25;;;;;;;6.67;4.93;;;;;;;14.11;77.13;99637.97;5094083;28;42406;-78
2022/10/28 00:53:55;;;;;;;6.13;5.13;;;;;;;14.09;77.22;99634.59;5110562;28;38925;-79
2022/10/28 00:56:28;;;;;;;5.33;4.67;;;;;;;14.08;77.14;99638.19;5112455;28;42538;-79
2022/10/28 00:58:59;;;;;;;6.33;5.07;;;;;;;14.06;77.40;99634.78;5110859;28;42601;-79
2022/10/28 01:01:27;;;;;;;6.20;4.73;;;;;;;14.06;77.59;99624.97;5105804;28;41231;-79
2022/10/28 01:03:56;;;;;;;6.23;4.73;;;;;;;14.03;77.83;99628.69;5110645;27;40645;-79
2022/10/28 01:06:26;;;;;;;6.83;4.73;;;;;;;13.98;77.79;99617.47;5113943;28;42191;-79
2022/10/28 01:08:54;;;;;;;6.47;5.07;;;;;;;14.01;77.55;99622.59;5114029;28;43208;-80
2022/10/28 01:11:39;;;;;;;7.33;5.00;;;;;;;14.01;77.45;99630.59;5093785;28;42340;-79
2022/10/28 01:14:18;;;;;;;6.23;4.93;;;;;;;13.90;77.60;99609.13;5111530;28;40961;-78
2022/10/28 01:17:08;;;;;;;8.07;5.37;;;;;;;13.97;78.09;99623.75;5112283;28;41576;-79
2022/10/28 01:19:59;;;;;;;5.40;4.83;;;;;;;13.96;78.05;99614.06;5112489;28;43747;-80
2022/10/28 01:22:32;;;;;;;8.03;5.47;;;;;;;13.95;77.69;99608.84;5113492;28;42278;-81
2022/10/28 01:25:38;;;;;;;6.17;5.03;;;;;;;13.92;78.18;99601.91;5112211;28;39849;-78
2022/10/28 01:28:23;;;;;;;7.23;5.00;;;;;;;13.90;78.01;99603.78;5050147;28;41458;-80
2022/10/28 01:31:05;;;;;;;7.30;4.87;;;;;;;13.87;78.41;99609.31;5110970;28;42847;-80
2022/10/28 01:33:36;;;;;;;7.10;5.00;;;;;;;13.84;78.02;99616.66;5114669;28;42342;-77
2022/10/28 01:36:10;;;;;;;5.37;4.87;;;;;;;13.82;77.90;99621.22;5112098;28;39950;-79
2022/10/28 01:38:47;;;;;;;5.50;4.90;;;;;;;13.68;78.08;99592.81;5096805;28;43075;-79
2022/10/28 01:41:17;;;;;;;6.53;4.90;;;;;;;13.74;78.12;99602.19;5096911;28;43054;-79
2022/10/28 01:43:52;;;;;;;6.30;4.90;;;;;;;13.67;78.18;99593.75;5097049;28;42670;-79
2022/10/28 01:46:28;;;;;;;5.60;4.10;;;;;;;13.69;78.55;99593.66;5110003;28;39748;-79
2022/10/28 01:49:01;;;;;;;6.47;4.90;;;;;;;13.66;78.37;99600.88;5114027;28;41556;-80
2022/10/28 01:51:33;;;;;;;6.67;4.50;;;;;;;13.66;78.03;99594.72;5110929;28;42674;-80
2022/10/28 01:54:03;;;;;;;5.70;4.50;;;;;;;13.63;78.15;99595.75;5111968;28;41902;-79
2022/10/28 01:56:34;;;;;;;5.53;4.47;;;;;;;13.51;78.17;99574.38;5096745;28;40439;-79
2022/10/28 01:59:06;;;;;;;6.33;4.57;;;;;;;13.59;78.22;99604.91;5112447;28;41920;-79
2022/10/28 02:01:36;;;;;;;6.97;4.47;;;;;;;13.55;78.15;99614.03;5096492;28;41721;-79
2022/10/28 02:04:04;;;;;;;5.60;4.80;;;;;;;13.52;78.36;99613.34;5096774;28;41122;-79
2022/10/28 02:06:33;;;;;;;5.37;4.13;;;;;;;13.45;78.43;99606.72;5113811;28;39933;-81
2022/10/28 02:09:11;;;;;;;5.20;4.03;;;;;;;13.45;78.26;99610.22;5113523;28;42825;-79
2022/10/28 02:12:17;;;;;;;8.87;5.30;;;;;;;13.40;80.54;99585.69;5113516;27;42543;-76
2022/10/28 02:15:02;;;;;;;5.73;4.87;;;;;;;13.34;80.46;99587.91;5085724;28;43723;-80
2022/10/28 02:17:44;;;;;;;6.60;5.10;;;;;;;13.30;80.07;99587.22;5076217;28;39138;-78
2022/10/28 02:20:23;;;;;;;6.47;4.47;;;;;;;13.24;79.86;99577.81;5096297;28;41359;-78
2022/10/28 02:22:54;;;;;;;4.77;4.27;;;;;;;13.16;80.04;99569.47;5113118;28;43578;-80
2022/10/28 02:25:26;;;;;;;6.10;4.10;;;;;;;13.22;80.03;99585.06;5110065;28;42346;-80
2022/10/28 02:27:58;;;;;;;4.30;3.90;;;;;;;13.20;79.74;99581.63;5095905;28;40480;-79
2022/10/28 02:30:33;;;;;;;6.00;4.73;;;;;;;13.05;79.75;99561.25;5110089;28;41939;-79
2022/10/28 02:33:05;;;;;;;7.33;5.43;;;;;;;13.15;80.08;99581.03;5096141;28;41649;-80
2022/10/28 02:35:38;;;;;;;7.63;5.00;;;;;;;13.13;80.14;99582.91;5111169;28;42209;-78
2022/10/28 02:38:12;;;;;;;5.97;4.63;;;;;;;13.11;79.85;99582.13;5095075;28;38366;-78
2022/10/28 02:40:41;;;;;;;6.80;5.17;;;;;;;13.12;79.69;99588.31;5112903;28;40592;-80
2022/10/28 02:43:11;;;;;;;7.23;4.90;;;;;;;13.11;79.64;99594.56;5113137;28;43020;-78
2022/10/28 02:45:43;;;;;;;10.27;5.30;;;;;;;12.97;79.46;99574.19;5113031;27;43240;-77
2022/10/28 02:48:19;;;;;;;6.27;4.30;;;;;;;13.04;79.78;99586.13;5095767;28;39989;-81
2022/10/28 02:50:53;;;;;;;7.13;5.63;;;;;;;13.12;79.32;99599.81;5108637;28;42426;-80
2022/10/28 02:53:26;;;;;;;6.47;5.67;;;;;;;13.13;79.56;99601.53;5113518;28;43897;-79
2022/10/28 02:55:57;;;;;;;6.43;4.30;;;;;;;13.12;79.20;99589.16;5112731;28;42905;-80
2022/10/28 02:58:25;;;;;;;5.63;4.43;;;;;;;13.18;79.70;99588.00;5113172;28;40379;-79
2022/10/28 03:00:52;;;;;;;5.73;4.37;;;;;;;13.20;79.52;99592.28;5112532;28;41129;-80
2022/10/28 03:03:22;;;;;;;5.53;4.50;;;;;;;13.24;79.58;99591.09;5094753;28;44927;-78
2022/10/28 03:05:49;;;;;;;6.77;4.37;;;;;;;13.27;79.26;99593.59;5113462;28;42201;-79
2022/10/28 03:08:17;;;;;;;7.03;4.77;;;;;;;13.32;79.31;99584.47;5112278;28;38946;-80
2022/10/28 03:10:44;;;;;;;8.03;4.80;;;;;;;13.34;79.83;99582.59;5095053;28;40387;-77
2022/10/28 03:13:12;;;;;;;5.20;4.67;;;;;;;13.36;79.82;99591.28;5095256;28;41648;-78
2022/10/28 03:15:40;;;;;;;6.47;4.40;;;;;;;13.40;79.42;99592.81;5095474;28;41005;-79
2022/10/28 03:18:08;;;;;;;5.23;4.10;;;;;;;13.36;79.59;99580.66;5113721;28;39970;-79
2022/10/28 03:20:37;;;;;;;7.63;4.73;;;;;;;13.44;79.70;99589.03;5095686;28;41921;-78
2022/10/28 03:23:04;;;;;;;5.43;4.37;;;;;;;13.44;80.05;99583.72;5112240;28;41894;-80
2022/10/28 03:25:32;;;;;;;6.40;4.53;;;;;;;13.48;79.85;99582.53;5112677;28;42262;-78
2022/10/28 03:28:00;;;;;;;6.93;4.93;;;;;;;13.56;79.52;99588.25;5111738;27;40039;-80
2022/10/28 03:30:27;;;;;;;6.40;4.23;;;;;;;13.60;79.51;99600.41;5112606;27;42651;-78
2022/10/28 03:32:55;;;;;;;8.43;5.30;;;;;;;13.62;79.28;99582.53;5095102;28;43407;-78
2022/10/28 03:35:23;;;;;;;7.23;5.00;;;;;;;13.67;79.41;99585.78;5112502;28;41378;-77
2022/10/28 03:37:52;;;;;;;5.50;4.67;;;;;;;13.73;79.39;99589.84;5095360;28;40257;-80
2022/10/28 03:40:20;;;;;;;8.30;5.37;;;;;;;13.76;79.15;99594.97;5113508;28;42520;-78
2022/10/28 03:42:47;;;;;;;9.63;5.67;;;;;;;13.79;79.14;99582.34;5094411;28;42877;-80
2022/10/28 03:45:15;;;;;;;6.43;5.50;;;;;;;13.84;79.08;99590.03;5111967;28;42965;-78
2022/10/28 03:47:43;;;;;;;5.80;5.20;;;;;;;13.84;78.95;99587.38;5111977;28;40332;-80
2022/10/28 03:50:11;;;;;;;5.60;4.70;;;;;;;13.89;78.92;99590.56;5112272;28;40777;-79
2022/10/28 03:52:38;;;;;;;5.47;4.77;;;;;;;13.91;79.05;99602.84;5094822;28;43914;-78
2022/10/28 03:55:08;;;;;;;6.20;5.03;;;;;;;13.90;78.81;99601.13;5094970;28;40742;-80
2022/10/28 03:57:36;;;;;;;6.23;5.30;;;;;;;13.96;78.98;99607.88;5094859;28;38999;-80
2022/10/28 04:00:05;;;;;;;5.43;4.53;;;;;;;13.97;79.32;99602.44;5112095;28;42755;-78
2022/10/28 04:02:39;;;;;;;5.30;4.63;;;;;;;14.00;79.07;99606.72;5111572;28;41902;-78
2022/10/28 04:05:07;;;;;;;6.03;4.90;;;;;;;14.01;78.72;99611.94;5113052;28;42796;-79
2022/10/28 08:45:53;;;;;;;5.50;4.67;;;;;;;19.39;79.75;99598.72;5129987;27;21078;-84
2022/10/28 08:48:28;;;;;;;5.70;4.90;;;;;;;19.59;76.91;99603.25;5127330;27;39744;-81
2022/10/28 08:51:00;;;;;;;6.83;5.33;;;;;;;19.68;75.67;99607.78;5129007;27;40866;-81
2022/10/28 08:53:33;;;;;;;7.10;4.90;;;;;;;19.63;74.89;99588.56;5111824;27;42189;-83
2022/10/28 08:56:13;;;;;;;6.03;4.77;;;;;;;19.67;73.92;99586.41;5127202;27;43073;-79
2022/10/28 08:58:44;;;;;;;6.23;5.27;;;;;;;19.80;73.89;99605.00;5129024;27;38548;-78
2022/10/28 09:01:20;;;;;;;6.57;5.23;;;;;;;19.82;72.81;99603.03;5125469;27;42054;-78
2022/10/28 09:03:52;;;;;;;9.03;5.53;;;;;;;19.80;72.64;99591.56;5127462;27;43808;-79
2022/10/28 09:06:19;;;;;;;8.03;5.33;;;;;;;19.79;72.35;99603.28;5128651;27;44461;-78
2022/10/28 09:08:50;;;;;;;5.97;5.30;;;;;;;19.70;72.11;99595.06;5145154;27;40715;-79
2022/10/28 09:11:49;;;;;;;5.73;4.83;;;;;;;19.78;72.01;99601.63;5128675;27;40462;-80
2022/10/28 09:14:36;;;;;;;5.80;4.87;;;;;;;19.70;71.22;99592.38;5128387;27;42776;-83
2022/10/28 09:17:15;;;;;;;6.20;4.53;;;;;;;19.78;71.50;99601.63;5128342;27;42238;-79
2022/10/28 09:19:48;;;;;;;7.93;5.50;;;;;;;19.78;71.42;99601.63;5128139;27;40935;-85
2022/10/28 09:22:25;;;;;;;8.13;5.80;;;;;;;19.81;71.04;99604.88;5126426;27;41933;-80
2022/10/28 09:24:55;;;;;;;6.83;5.10;;;;;;;19.78;71.26;99597.06;5128218;27;42471;-81
2022/10/28 09:27:53;;;;;;;7.30;5.30;;;;;;;19.88;70.74;99602.50;5128319;27;41905;-82
2022/10/28 09:30:35;;;;;;;5.70;4.90;;;;;;;19.96;70.23;99589.22;5128517;27;38940;-81
2022/10/28 09:33:15;;;;;;;7.00;5.37;;;;;;;20.12;69.29;99575.25;5127671;27;42227;-79
2022/10/28 09:35:47;;;;;;;7.97;5.53;;;;;;;20.39;68.88;99579.00;5142344;27;43648;-82
2022/10/28 09:38:24;;;;;;;6.97;5.50;;;;;;;20.85;67.39;99576.59;5111188;27;41585;-84
2022/10/28 09:40:58;;;;;;;8.43;5.73;;;;;;;21.13;65.54;99570.31;5142742;27;39869;-82
2022/10/28 09:43:30;;;;;;;7.07;5.70;;;;;;;21.21;65.58;99562.38;5127511;27;40914;-80
2022/10/28 09:46:02;;;;;;;8.87;5.93;;;;;;;21.77;64.34;99570.34;5118452;27;41437;-83
2022/10/28 09:48:34;;;;;;;8.37;5.80;;;;;;;22.40;63.24;99573.13;5114256;28;41175;-80
2022/10/28 09:51:02;;;;;;;6.97;5.13;;;;;;;23.73;60.15;99592.78;5097536;28;41506;-82
2022/10/28 09:53:41;;;;;;;6.33;5.03;;;;;;;24.37;58.33;99583.19;5114184;28;40699;-81
2022/10/28 09:56:09;;;;;;;7.50;5.00;;;;;;;25.20;56.46;99592.06;5097433;28;41883;-83
2022/10/28 09:59:01;;;;;;;6.60;4.73;;;;;;;26.25;51.83;99598.19;5115104;28;42536;-85
2022/10/28 10:01:46;;;;;;;7.83;4.60;;;;;;;27.19;50.35;99608.78;5096908;28;39894;-81
2022/10/28 10:04:20;;;;;;;7.40;4.63;;;;;;;27.34;48.96;99611.50;5113335;28;41688;-82
2022/10/28 10:06:52;;;;;;;5.80;4.30;;;;;;;27.72;48.59;99613.19;5112354;28;42654;-82
2022/10/28 10:09:25;;;;;;;4.63;3.67;;;;;;;27.83;48.77;99606.41;5096838;28;41161;-81
2022/10/28 10:11:56;;;;;;;5.23;3.97;;;;;;;28.56;45.98;99624.59;5114126;28;40432;-84
2022/10/28 10:14:47;;;;;;;7.03;4.20;;;;;;;28.69;44.96;99608.34;5096460;28;40779;-84
2022/10/28 10:17:18;;;;;;;9.13;4.33;;;;;;;30.11;42.92;99631.78;5113461;28;42637;-78
2022/10/28 10:20:06;;;;;;;5.13;3.90;;;;;;;30.60;41.04;99664.41;5113495;28;42138;-78
2022/10/28 10:22:36;;;;;;;6.47;3.80;;;;;;;30.39;41.86;99661.78;5111956;28;40046;-84
2022/10/28 10:25:21;;;;;;;5.97;3.63;;;;;;;30.40;42.63;99629.81;5116431;28;40548;-84
2022/10/28 10:28:17;;;;;;;6.70;3.87;;;;;;;31.34;40.81;99644.34;5135636;27;42973;-84
2022/10/28 10:30:49;;;;;;;4.23;3.57;;;;;;;32.11;39.75;99649.13;5097086;28;41959;-82
2022/10/28 10:33:21;;;;;;;4.88;3.70;;;;;;;33.72;37.71;99660.63;5111495;28;40935;-81
2022/10/28 10:36:01;;;;;;;4.70;3.70;;;;;;;35.85;34.45;99700.59;5111928;28;42742;-83
2022/10/28 10:38:38;;;;;;;3.90;3.30;;;;;;;37.63;31.77;99701.50;5096257;28;45195;-81
2022/10/28 10:41:05;;;;;;;3.60;2.83;;;;;;;38.86;30.31;99716.84;5130554;27;41896;-80
2022/10/28 10:43:54;;;;;;;4.55;3.60;;;;;;;39.53;28.70;99693.44;5095925;28;38685;-81
2022/10/28 10:46:21;;;;;;;3.55;3.00;;;;;;;40.28;28.03;99700.66;5096594;28;40894;-81
2022/10/28 10:49:07;;;;;;;3.85;3.25;;;;;;;40.32;27.05;99699.00;5096391;28;41709;-81
2022/10/28 10:51:40;;;;;;;5.47;3.50;;;;;;;39.55;27.66;99688.47;5096021;28;40831;-79
2022/10/28 10:54:23;;;;;;;5.55;3.70;;;;;;;37.99;28.78;99678.84;5112970;28;40113;-85
2022/10/28 10:56:51;;;;;;;6.80;3.65;;;;;;;36.38;30.63;99655.44;5094893;28;42996;-84
2022/10/28 10:59:40;;;;;;;4.88;3.60;;;;;;;35.61;32.37;99655.59;5096211;28;41562;-83
2022/10/28 11:02:38;;;;;;;4.93;3.67;;;;;;;35.76;32.50;99618.47;5113076;28;41452;-84
2022/10/28 11:05:28;;;;;;;5.45;3.80;;;;;;;35.11;32.67;99627.63;5095665;28;41675;-87
2022/10/28 11:08:03;;;;;;;5.22;3.63;;;;;;;35.00;33.54;99624.81;5095947;28;42007;-88
2022/10/28 11:10:42;;;;;;;4.97;3.50;;;;;;;34.18;34.36;99610.66;5096077;28;43009;-85
2022/10/28 11:13:26;;;;;;;5.82;3.55;;;;;;;33.99;35.43;99590.59;5096371;28;42448;-84
2022/10/28 11:19:19;;;;;;;5.30;3.33;;;;;;;32.86;36.11;99573.47;5095782;28;41269;-86
2022/10/28 11:21:58;;;;;;;6.43;3.70;;;;;;;32.21;36.13;99585.63;5109838;27;42533;-82
2022/10/28 11:24:48;;;;;;;5.27;3.40;;;;;;;32.25;36.10;99612.41;5095875;28;42802;-80
2022/10/28 11:27:47;;;;;;;8.53;4.13;;;;;;;32.01;37.37;99592.03;5112902;28;39130;-87
2022/10/28 11:30:57;;;;;;;5.57;4.03;;;;;;;33.80;35.68;99573.25;5095946;28;41083;-83
2022/10/28 11:33:43;;;;;;;5.80;3.55;;;;;;;34.55;34.46;99595.81;5096101;28;41846;-89
2022/10/28 11:36:36;;;;;;;9.18;3.53;;;;;;;35.70;31.93;99589.94;5112414;28;41059;-84
2022/10/28 11:39:47;;;;;;;4.90;2.65;;;;;;;36.84;30.68;99603.94;5094927;28;40778;-82
2022/10/28 11:42:56;;;;;;;8.80;2.95;;;;;;;37.21;29.34;99604.34;5092084;28;43440;-84
2022/10/28 11:48:55;;;;;;;5.78;2.88;;;;;;;40.12;26.08;99608.97;5094716;28;43213;-88
2022/10/28 11:51:43;;;;;;;4.40;2.60;;;;;;;40.97;25.61;99636.47;5095570;28;38624;-85
2022/10/28 11:54:44;;;;;;;4.25;2.17;;;;;;;41.80;24.14;99650.97;5112320;28;42007;-83
2022/10/28 11:57:16;;;;;;;6.18;3.05;;;;;;;41.83;24.07;99639.28;5095236;28;41493;-85
2022/10/28 12:00:06;;;;;;;5.95;3.10;;;;;;;41.83;23.86;99650.41;5109630;28;42149;-83
2022/10/28 12:02:54;;;;;;;7.38;3.47;;;;;;;40.80;24.97;99623.66;5099737;28;38879;-84
2022/10/28 12:05:27;;;;;;;3.50;2.72;;;;;;;39.24;26.02;99620.81;5095346;28;40702;-79
2022/10/28 12:08:15;;;;;;;7.72;2.70;;;;;;;37.79;28.10;99605.81;5128641;27;42818;-82
2022/10/28 12:10:59;;;;;;;5.38;2.95;;;;;;;36.69;30.06;99574.97;5111889;28;42132;-87
2022/10/28 12:13:39;;;;;;;5.35;2.72;;;;;;;35.91;30.76;99578.31;5110450;28;40681;-81
2022/10/28 12:16:15;;;;;;;5.55;2.92;;;;;;;35.08;31.70;99559.25;5095324;28;40652;-86
2022/10/28 12:18:52;;;;;;;5.90;3.17;;;;;;;34.22;32.01;99551.41;5091311;28;41764;-83
2022/10/28 12:21:28;;;;;;;3.03;2.60;;;;;;;33.51;33.21;99539.09;5105633;28;42153;-87
2022/10/28 12:23:58;;;;;;;6.23;3.33;;;;;;;33.08;33.46;99525.34;5109444;28;40270;-83
2022/10/28 12:26:35;;;;;;;4.33;3.17;;;;;;;32.56;34.55;99528.47;5112095;28;41361;-79
2022/10/28 12:29:09;;;;;;;4.43;2.43;;;;;;;31.92;36.03;99513.84;5109957;28;42571;-82
2022/10/28 12:31:43;;;;;;;9.10;2.93;;;;;;;31.43;37.58;99515.22;5109971;28;42046;-88
2022/10/28 12:34:16;;;;;;;6.43;2.60;;;;;;;31.06;38.76;99511.28;5078967;28;39817;-86
2022/10/28 12:36:48;;;;;;;5.07;3.30;;;;;;;30.85;38.94;99500.56;5109375;28;41877;-81
2022/10/28 12:39:22;;;;;;;5.60;2.50;;;;;;;30.55;39.70;99491.06;5091725;28;43868;-88
2022/10/28 12:41:57;;;;;;;4.63;2.70;;;;;;;30.42;39.10;99499.22;5074314;28;41365;-90
2022/10/28 12:44:27;;;;;;;6.03;2.73;;;;;;;30.13;39.50;99470.38;5093411;28;39611;-88
2022/10/28 12:47:08;;;;;;;8.50;2.80;;;;;;;30.19;40.00;99492.25;5075284;28;40510;-91
2022/10/28 12:49:45;;;;;;;6.53;4.20;;;;;;;30.13;39.37;99490.34;5074759;28;42995;-83
2022/10/28 12:52:27;;;;;;;8.30;3.57;;;;;;;30.12;39.75;99502.31;5073992;28;42216;-85
2022/10/28 12:55:01;;;;;;;6.10;2.80;;;;;;;30.07;40.24;99499.34;5088563;28;39684;-80
2022/10/28 12:57:33;;;;;;;4.53;2.70;;;;;;;30.05;40.86;99490.53;5098953;28;42174;-88
2022/10/28 13:00:04;;;;;;;3.90;2.40;;;;;;;30.05;40.58;99490.53;5093716;28;43126;-88
2022/10/28 13:02:38;;;;;;;6.97;2.97;;;;;;;29.99;40.83;99485.91;5110444;28;41017;-78
2022/10/28 13:05:16;;;;;;;4.73;2.63;;;;;;;29.87;41.68;99476.59;5092693;28;40922;-81
2022/10/28 13:08:01;;;;;;;4.27;2.40;;;;;;;29.74;41.38;99471.06;5110280;28;42250;-81
2022/10/28 13:10:36;;;;;;;7.13;3.27;;;;;;;29.47;41.88;99462.75;5111183;28;42037;-79
2022/10/28 13:13:15;;;;;;;6.03;2.80;;;;;;;29.37;42.14;99454.06;5071136;28;43336;-85
2022/10/28 13:16:02;;;;;;;8.37;3.00;;;;;;;29.43;42.34;99453.28;5074145;28;41525;-79
2022/10/28 13:18:54;;;;;;;4.90;2.90;;;;;;;29.45;42.64;99456.66;5090157;28;40231;-76
2022/10/28 13:21:35;;;;;;;5.33;2.97;;;;;;;29.63;42.24;99453.38;5077630;28;43760;-79
2022/10/28 13:24:13;;;;;;;4.73;2.60;;;;;;;29.67;42.33;99460.13;5097161;28;43030;-83
2022/10/28 13:26:43;;;;;;;6.40;2.50;;;;;;;29.77;42.78;99455.13;5098764;28;40686;-87
2022/10/28 13:29:20;;;;;;;4.33;3.03;;;;;;;30.01;42.10;99399.13;5106112;28;40789;-85
2022/10/28 13:31:49;;;;;;;4.57;2.63;;;;;;;30.91;41.30;99455.94;5097500;28;42792;-84
2022/10/28 13:34:20;;;;;;;7.60;2.80;;;;;;;31.41;40.45;99469.97;5097423;28;40694;-82
2022/10/28 13:36:56;;;;;;;6.60;2.50;;;;;;;31.91;39.20;99492.97;5097164;28;40153;-79
2022/10/28 13:39:39;;;;;;;7.87;3.10;;;;;;;32.15;38.58;99494.09;5112148;28;41657;-81
2022/10/28 13:42:45;;;;;;;3.90;2.80;;;;;;;32.31;38.24;99487.31;5114126;27;42569;-84
2022/10/28 13:45:48;;;;;;;6.33;2.70;;;;;;;31.77;38.49;99489.44;5114139;28;40841;-79
2022/10/28 13:48:48;;;;;;;7.47;2.37;;;;;;;31.17;40.27;99470.66;5111685;28;39915;-86
2022/10/28 13:51:33;;;;;;;5.73;3.13;;;;;;;31.29;40.76;99458.00;5097314;28;40580;-86
2022/10/28 13:54:02;;;;;;;5.63;2.63;;;;;;;30.91;40.37;99435.97;5114266;28;41802;-81
2022/10/28 13:56:39;;;;;;;3.33;2.57;;;;;;;30.64;41.35;99452.41;5114058;28;43573;-85
2022/10/28 13:59:26;;;;;;;4.20;2.60;;;;;;;30.23;41.69;99438.88;5097729;28;38740;-89
2022/10/28 14:01:57;;;;;;;4.03;2.47;;;;;;;29.91;42.40;99445.09;5114202;28;42831;-82
2022/10/28 14:04:28;;;;;;;2.47;2.17;;;;;;;29.51;43.13;99441.38;5097268;28;44178;-83
2022/10/28 14:07:06;;;;;;;6.50;2.87;;;;;;;29.03;43.99;99424.09;5114247;28;41533;-83
2022/10/28 14:09:36;;;;;;;4.93;2.50;;;;;;;28.63;43.86;99439.28;5111300;28;40920;-81
2022/10/28 14:12:17;;;;;;;6.53;2.93;;;;;;;28.19;44.47;99422.13;5114022;28;42093;-87
2022/10/28 14:15:03;;;;;;;4.60;2.40;;;;;;;27.95;45.34;99446.97;5111158;28;43902;-80
2022/10/28 14:17:37;;;;;;;4.07;2.50;;;;;;;27.63;46.14;99437.41;5112995;28;42214;-81
2022/10/28 14:20:20;;;;;;;5.27;2.70;;;;;;;27.25;46.69;99411.34;5114559;28;38817;-83
2022/10/28 14:22:49;;;;;;;4.23;2.50;;;;;;;27.07;47.77;99425.34;5113535;28;40660;-80
2022/10/28 14:25:50;;;;;;;6.13;2.60;;;;;;;26.83;48.28;99419.09;5114063;28;42714;-81
2022/10/28 14:28:53;;;;;;;5.57;2.83;;;;;;;26.57;49.17;99407.84;5096647;28;41132;-85
2022/10/28 14:31:44;;;;;;;6.30;2.97;;;;;;;26.24;50.04;99390.97;5096530;28;40869;-81
2022/10/28 14:34:50;;;;;;;3.93;2.60;;;;;;;26.03;50.46;99386.22;5096703;28;40941;-85
2022/10/28 14:37:44;;;;;;;5.87;2.70;;;;;;;25.82;50.85;99386.06;5096027;28;41519;-80
2022/10/28 14:40:24;;;;;;;3.53;2.63;;;;;;;25.67;51.37;99387.84;5106335;28;41075;-81
2022/10/28 14:43:06;;;;;;;3.83;2.50;;;;;;;25.57;51.58;99398.91;5109769;28;39920;-81
2022/10/28 14:45:45;;;;;;;3.70;2.50;;;;;;;25.41;51.88;99410.66;5093522;28;41174;-82
2022/10/28 14:48:48;;;;;;;7.57;2.63;;;;;;;25.19;52.21;99387.06;5092746;28;41666;-81
2022/10/28 14:51:19;;;;;;;5.87;2.70;;;;;;;24.99;52.46;99389.31;5071570;28;40839;-82
2022/10/28 14:53:48;;;;;;;4.40;2.43;;;;;;;24.89;52.43;99387.81;5093348;28;38972;-82
2022/10/28 14:56:24;;;;;;;4.27;2.40;;;;;;;24.84;52.68;99399.19;5092937;28;41955;-82
2022/10/28 14:58:53;;;;;;;3.70;2.37;;;;;;;24.69;53.46;99385.50;5076405;28;41751;-83
2022/10/28 15:01:55;;;;;;;4.97;2.50;;;;;;;24.67;53.57;99400.22;5092977;28;42365;-81
2022/10/28 15:04:23;;;;;;;3.77;2.67;;;;;;;24.51;54.14;99390.25;5092989;28;39404;-80
2022/10/28 15:06:52;;;;;;;4.27;2.50;;;;;;;24.51;53.76;99405.66;5093616;28;41513;-82
2022/10/28 15:09:22;;;;;;;3.90;2.57;;;;;;;24.41;54.14;99411.25;5092756;28;42252;-80
2022/10/28 15:11:54;;;;;;;3.23;2.73;;;;;;;24.32;54.70;99404.16;5093576;28;42676;-81
2022/10/28 15:14:32;;;;;;;4.83;2.80;;;;;;;24.22;54.91;99404.34;5076393;28;40168;-84
2022/10/28 15:17:11;;;;;;;4.83;2.80;;;;;;;24.13;55.05;99407.16;5075546;28;43406;-84
2022/10/28 15:19:39;;;;;;;4.37;2.57;;;;;;;23.92;55.35;99389.59;5075514;28;41498;-84
2022/10/28 15:22:14;;;;;;;4.53;2.83;;;;;;;23.90;56.00;99402.44;5075170;28;41081;-82
2022/10/28 15:24:42;;;;;;;3.20;2.40;;;;;;;23.72;55.94;99382.81;5090454;28;39366;-82
2022/10/28 15:27:13;;;;;;;7.60;3.30;;;;;;;23.69;55.87;99383.13;5074164;28;41669;-81
2022/10/28 15:29:42;;;;;;;3.47;2.70;;;;;;;23.59;56.94;99375.19;5079220;28;42024;-82
2022/10/28 15:32:25;;;;;;;4.97;2.70;;;;;;;23.59;56.63;99385.16;5099450;28;41847;-81
2022/10/28 15:34:53;;;;;;;4.17;2.73;;;;;;;23.42;57.09;99368.00;5107710;28;40920;-87
2022/10/28 15:37:24;;;;;;;5.03;2.50;;;;;;;23.37;58.19;99358.72;5089894;28;39611;-86
2022/10/28 15:40:09;;;;;;;3.90;2.43;;;;;;;23.29;57.90;99364.91;5092351;28;41850;-81
2022/10/28 15:42:41;;;;;;;5.27;2.50;;;;;;;23.31;58.10;99381.81;5103647;28;44913;-81
2022/10/28 15:45:18;;;;;;;4.10;2.70;;;;;;;23.22;58.56;99375.56;5077539;28;38949;-79
2022/10/28 15:47:49;;;;;;;5.43;2.60;;;;;;;23.15;58.58;99370.94;5081921;28;40636;-82
2022/10/28 15:50:29;;;;;;;4.13;2.67;;;;;;;22.92;59.40;99351.78;5095234;28;42145;-85
2022/10/28 15:53:35;;;;;;;3.23;2.30;;;;;;;22.96;59.41;99374.78;5095130;28;41113;-80
2022/10/28 15:56:18;;;;;;;4.63;2.87;;;;;;;22.80;59.53;99369.28;5089724;28;38778;-84
2022/10/28 15:58:48;;;;;;;5.20;2.70;;;;;;;22.62;59.49;99371.19;5110157;28;41567;-81
2022/10/28 16:01:31;;;;;;;3.47;2.60;;;;;;;22.45;60.57;99381.88;5107794;28;42722;-82
2022/10/28 16:04:00;;;;;;;4.23;2.93;;;;;;;22.11;61.41;99356.66;5109802;28;43039;-81
2022/10/28 16:06:30;;;;;;;4.00;3.07;;;;;;;22.06;61.10;99386.81;5091174;28;40086;-81
2022/10/28 16:09:05;;;;;;;5.87;4.27;;;;;;;21.80;61.63;99381.31;5091434;28;42704;-82
2022/10/28 16:11:38;;;;;;;7.43;4.40;;;;;;;21.63;61.93;99379.47;5090929;28;44562;-81
2022/10/28 16:14:23;;;;;;;6.93;4.27;;;;;;;21.45;62.38;99368.66;5074381;28;43636;-82
2022/10/28 16:16:51;;;;;;;4.97;3.73;;;;;;;21.49;63.18;99393.47;5090796;28;39953;-85
2022/10/28 16:19:27;;;;;;;9.30;4.33;;;;;;;21.35;63.69;99392.16;5074591;28;41194;-80
2022/10/28 16:21:56;;;;;;;8.47;4.80;;;;;;;21.27;64.62;99377.72;5092154;28;43606;-81
2022/10/28 16:24:23;;;;;;;5.03;3.97;;;;;;;21.20;64.90;99387.41;5076760;28;42498;-78
2022/10/28 16:26:51;;;;;;;6.93;4.63;;;;;;;21.13;64.47;99389.84;5092276;28;41210;-82
2022/10/28 16:29:18;;;;;;;8.63;5.33;;;;;;;21.07;65.04;99388.56;5092998;28;42694;-79
2022/10/28 16:31:51;;;;;;;7.53;4.43;;;;;;;21.04;65.69;99388.00;5091236;28;42829;-78
2022/10/28 16:34:20;;;;;;;7.80;4.17;;;;;;;20.79;64.99;99363.47;5089601;28;43026;-81
2022/10/28 16:36:48;;;;;;;5.53;3.90;;;;;;;20.95;65.06;99392.47;5074183;28;38682;-80
2022/10/28 16:39:16;;;;;;;4.30;3.50;;;;;;;20.86;64.67;99379.91;5074565;28;41742;-81
2022/10/28 16:41:43;;;;;;;7.03;5.17;;;;;;;20.91;65.63;99393.75;5073409;28;41551;-80
2022/10/28 16:44:16;;;;;;;12.07;8.93;;;;;;;20.64;65.77;99364.13;5074131;28;42021;-81
2022/10/28 16:46:44;;;;;;;14.03;10.50;;;;;;;20.78;66.01;99401.31;5089138;28;40291;-82
2022/10/28 16:49:12;;;;;;;15.67;10.93;;;;;;;20.75;66.41;99398.94;5084845;28;41057;-81
2022/10/28 16:51:41;;;;;;;10.63;8.70;;;;;;;20.69;66.26;99407.56;5091391;28;43455;-80
2022/10/28 16:54:10;;;;;;;11.90;8.60;;;;;;;20.31;66.78;99346.59;5093871;28;41897;-79
2022/10/28 16:56:37;;;;;;;10.07;7.30;;;;;;;20.61;66.66;99412.84;5097084;28;40491;-81
2022/10/28 16:59:05;;;;;;;8.10;6.30;;;;;;;20.57;66.94;99406.06;5097879;28;43638;-81
2022/10/28 17:01:32;;;;;;;8.63;5.40;;;;;;;20.38;66.86;99378.22;5111136;28;43690;-82